createdAt,value
2023-09-08T00:00:23.918Z,100576.09
2023-09-08T00:02:51.927Z,100578.13
2023-09-08T00:05:20.689Z,100573.16
2023-09-08T00:07:48.706Z,100576.25
2023-09-08T00:10:18.533Z,100574.22
2023-09-08T00:12:46.621Z,100572.78
2023-09-08T00:15:14.812Z,100578.94
2023-09-08T00:17:42.705Z,100571.66
2023-09-08T00:20:11.751Z,100572.72
2023-09-08T00:22:40.196Z,100574.84
2023-09-08T00:25:09.051Z,100568.69
2023-09-08T00:27:39.219Z,100557.25
2023-09-08T00:30:08.653Z,100570.31
2023-09-08T00:32:36.910Z,100561.47
2023-09-08T00:35:05.677Z,100568.25
2023-09-08T00:37:34.515Z,100572.47
2023-09-08T00:40:02.510Z,100570.38
2023-09-08T00:42:30.537Z,100566.47
2023-09-08T00:44:59.846Z,100570.88
2023-09-08T00:47:28.254Z,100566.53
2023-09-08T00:49:57.040Z,100569.50
2023-09-08T00:52:26.418Z,100569.22
2023-09-08T00:54:54.718Z,100569.75
2023-09-08T00:57:22.838Z,100563.13
2023-09-08T00:59:51.141Z,100566.22
2023-09-08T01:02:20.829Z,100562.84
2023-09-08T01:04:49.065Z,100568.34
2023-09-08T01:07:18.208Z,100572.66
2023-09-08T01:09:49.745Z,100571.53
2023-09-08T01:12:18.117Z,100572.72
2023-09-08T01:14:46.366Z,100570.09
2023-09-08T01:17:14.525Z,100574.75
2023-09-08T01:19:46.208Z,100575.47
2023-09-08T01:22:41.271Z,100571.31
2023-09-08T01:25:17.678Z,100573.56
2023-09-08T01:27:49.736Z,100571.75
2023-09-08T01:30:18.810Z,100574.00
2023-09-08T01:32:48.143Z,100581.91
2023-09-08T01:35:16.260Z,100579.22
2023-09-08T01:37:46.559Z,100573.75
2023-09-08T01:40:16.922Z,100578.13
2023-09-08T01:42:45.210Z,100577.28
2023-09-08T01:45:13.792Z,100569.59
2023-09-08T01:47:42.320Z,100579.22
2023-09-08T01:50:11.363Z,100571.53
2023-09-08T01:52:39.573Z,100568.66
2023-09-08T01:55:08.880Z,100564.78
2023-09-08T01:57:38.378Z,100566.25
2023-09-08T02:00:07.946Z,100563.41
2023-09-08T02:02:40.766Z,100557.91
2023-09-08T02:05:09.842Z,100554.50
2023-09-08T02:07:38.123Z,100559.69
2023-09-08T02:10:06.794Z,100561.31
2023-09-08T02:12:35.039Z,100561.91
2023-09-08T02:15:06.460Z,100563.63
2023-09-08T02:17:35.930Z,100562.47
2023-09-08T02:20:05.330Z,100570.94
2023-09-08T02:22:33.321Z,100568.53
2023-09-08T02:25:01.485Z,100566.19
2023-09-08T02:27:30.177Z,100564.06
2023-09-08T02:29:58.252Z,100564.91
2023-09-08T02:32:27.487Z,100561.34
2023-09-08T02:34:56.712Z,100570.13
2023-09-08T02:37:25.215Z,100572.03
2023-09-08T02:39:53.917Z,100574.66
2023-09-08T02:42:22.592Z,100584.13
2023-09-08T02:44:50.579Z,100583.09
2023-09-08T02:47:18.926Z,100584.16
2023-09-08T02:49:48.944Z,100578.97
2023-09-08T02:52:17.118Z,100579.69
2023-09-08T02:54:45.206Z,100588.13
2023-09-08T02:57:13.780Z,100581.59
2023-09-08T02:59:42.554Z,100585.50
2023-09-08T03:02:11.000Z,100569.81
2023-09-08T03:04:39.417Z,100577.59
2023-09-08T03:07:08.855Z,100574.97
2023-09-08T03:09:37.672Z,100573.28
2023-09-08T03:12:06.694Z,100581.50
2023-09-08T03:14:36.811Z,100579.50
2023-09-08T03:17:05.173Z,100576.88
2023-09-08T03:19:33.609Z,100584.91
2023-09-08T03:22:01.978Z,100586.56
2023-09-08T03:24:31.679Z,100586.13
2023-09-08T03:27:00.076Z,100589.22
2023-09-08T03:29:30.113Z,100588.03
2023-09-08T03:31:58.345Z,100586.75
2023-09-08T03:34:26.632Z,100582.56
2023-09-08T03:36:56.137Z,100580.22
2023-09-08T03:39:24.431Z,100587.19
2023-09-08T03:41:53.920Z,100587.78
2023-09-08T03:44:22.086Z,100591.19
2023-09-08T03:46:50.196Z,100594.19
2023-09-08T03:49:19.681Z,100588.16
2023-09-08T03:51:47.958Z,100584.97
2023-09-08T03:54:16.229Z,100594.63
2023-09-08T03:56:44.137Z,100594.41
2023-09-08T03:59:13.989Z,100596.06
2023-09-08T04:01:42.524Z,100591.69
2023-09-08T04:04:10.631Z,100594.69
2023-09-08T04:06:38.478Z,100590.66
2023-09-08T04:09:06.592Z,100591.03
2023-09-08T04:11:34.413Z,100598.81
2023-09-08T04:14:02.511Z,100593.66
2023-09-08T04:16:31.833Z,100601.16
2023-09-08T04:19:00.315Z,100602.88
2023-09-08T04:21:28.240Z,100601.09
2023-09-08T04:23:56.092Z,100606.81
2023-09-08T04:26:23.985Z,100613.19
2023-09-08T04:28:51.755Z,100613.84
2023-09-08T04:31:20.919Z,100614.41
2023-09-08T04:33:50.257Z,100620.69
2023-09-08T04:36:18.546Z,100616.09
2023-09-08T04:38:46.899Z,100613.19
2023-09-08T04:41:14.733Z,100626.03
2023-09-08T04:43:42.829Z,100621.06
2023-09-08T04:46:10.637Z,100618.34
2023-09-08T04:48:41.004Z,100623.69
2023-09-08T04:51:10.485Z,100623.13
2023-09-08T04:53:39.050Z,100620.69
2023-09-08T04:56:06.906Z,100621.91
2023-09-08T04:58:34.903Z,100616.34
2023-09-08T05:01:02.992Z,100617.66
2023-09-08T05:03:32.294Z,100608.38
2023-09-08T05:06:02.522Z,100610.59
2023-09-08T05:08:32.674Z,100610.03
2023-09-08T05:11:00.795Z,100610.72
2023-09-08T05:13:31.807Z,100611.38
2023-09-08T05:16:12.868Z,100603.69
2023-09-08T05:18:49.514Z,100610.66
2023-09-08T05:21:18.532Z,100610.16
2023-09-08T05:23:49.598Z,100611.53
2023-09-08T05:26:18.187Z,100614.84
2023-09-08T05:28:46.566Z,100617.19
2023-09-08T05:31:14.907Z,100614.66
2023-09-08T05:33:43.360Z,100614.84
2023-09-08T05:36:14.138Z,100631.16
2023-09-08T05:38:44.305Z,100622.50
2023-09-08T05:41:14.233Z,100627.50
2023-09-08T05:43:42.840Z,100625.13
2023-09-08T05:46:11.137Z,100637.72
2023-09-08T05:48:40.202Z,100628.25
2023-09-08T05:51:08.670Z,100631.97
2023-09-08T05:53:40.784Z,100640.59
2023-09-08T05:56:09.939Z,100637.44
2023-09-08T05:58:40.675Z,100647.66
2023-09-08T06:01:17.544Z,100639.56
2023-09-08T06:03:47.061Z,100636.06
2023-09-08T06:06:16.571Z,100641.44
2023-09-08T06:08:44.846Z,100631.16
2023-09-08T06:11:14.024Z,100631.63
2023-09-08T06:13:44.778Z,100630.13
2023-09-08T06:16:13.061Z,100629.19
2023-09-08T06:18:42.135Z,100628.59
2023-09-08T06:21:14.891Z,100629.25
2023-09-08T06:23:43.625Z,100620.78
2023-09-08T06:26:14.753Z,100628.84
2023-09-08T06:28:45.169Z,100632.97
2023-09-08T06:31:13.528Z,100629.63
2023-09-08T06:33:43.753Z,100639.19
2023-09-08T06:36:12.141Z,100635.19
2023-09-08T06:38:40.950Z,100625.31
2023-09-08T06:41:12.900Z,100632.03
2023-09-08T06:43:41.522Z,100617.88
2023-09-08T06:46:19.077Z,100627.19
2023-09-08T06:48:47.630Z,100625.94
2023-09-08T06:51:16.409Z,100619.59
2023-09-08T06:53:46.056Z,100625.22
2023-09-08T06:56:15.560Z,100618.44
2023-09-08T06:58:44.101Z,100622.25
2023-09-08T07:01:12.323Z,100640.56
2023-09-08T07:03:42.225Z,100622.06
2023-09-08T07:06:11.259Z,100629.50
2023-09-08T07:08:39.109Z,100619.28
2023-09-08T07:11:07.173Z,100622.75
2023-09-08T07:13:36.063Z,100619.66
2023-09-08T07:16:04.095Z,100620.13
2023-09-08T07:18:37.171Z,100618.50
2023-09-08T07:21:07.609Z,100613.59
2023-09-08T07:23:38.082Z,100616.38
2023-09-08T07:26:07.273Z,100606.97
2023-09-08T07:28:36.115Z,100601.00
2023-09-08T07:31:10.236Z,100596.16
2023-09-08T07:33:40.837Z,100598.19
2023-09-08T07:36:11.421Z,100599.53
2023-09-08T07:38:41.205Z,100587.56
2023-09-08T07:41:09.394Z,100593.69
2023-09-08T07:43:41.569Z,100601.81
2023-09-08T07:46:11.534Z,100600.84
2023-09-08T07:48:39.794Z,100606.97
2023-09-08T07:51:08.128Z,100602.97
2023-09-08T07:53:37.789Z,100603.22
2023-09-08T07:56:06.323Z,100602.50
2023-09-08T07:58:34.728Z,100612.50
2023-09-08T08:01:03.415Z,100613.22
2023-09-08T08:03:31.270Z,100608.63
2023-09-08T08:05:59.831Z,100610.00
2023-09-08T08:08:27.618Z,100614.03
2023-09-08T08:10:56.740Z,100608.41
2023-09-08T08:13:24.464Z,100603.00
2023-09-08T08:15:52.220Z,100606.28
2023-09-08T08:18:20.297Z,100602.28
2023-09-08T08:20:48.362Z,100605.75
2023-09-08T08:23:16.523Z,100612.16
2023-09-08T08:25:44.305Z,100613.25
2023-09-08T08:28:13.738Z,100617.56
2023-09-08T08:30:41.975Z,100607.88
2023-09-08T08:33:09.918Z,100606.69
2023-09-08T08:35:37.680Z,100607.13
2023-09-08T08:38:06.335Z,100601.56
2023-09-08T08:40:36.051Z,100589.47
2023-09-08T08:43:04.925Z,100591.53
2023-09-08T08:45:35.123Z,100588.88
2023-09-08T08:48:04.010Z,100592.69
2023-09-08T08:50:33.655Z,100595.13
2023-09-08T08:53:03.165Z,100596.44
2023-09-08T08:55:32.391Z,100578.03
2023-09-08T08:58:06.958Z,100572.56
2023-09-08T09:00:38.772Z,100572.00
2023-09-08T09:03:14.598Z,100562.25
2023-09-08T09:05:48.243Z,100559.47
2023-09-08T09:08:18.170Z,100564.84
2023-09-08T09:10:46.238Z,100570.38
2023-09-08T09:13:14.028Z,100566.75
2023-09-08T09:15:43.960Z,100566.03
2023-09-08T09:18:11.791Z,100563.38
2023-09-08T09:20:41.621Z,100563.69
2023-09-08T09:23:11.429Z,100566.31
2023-09-08T09:25:39.446Z,100565.06
2023-09-08T09:28:08.684Z,100570.53
2023-09-08T09:30:52.700Z,100566.88
2023-09-08T09:33:21.948Z,100561.28
2023-09-08T09:35:52.719Z,100555.91
2023-09-08T09:38:21.638Z,100562.34
2023-09-08T09:40:50.745Z,100560.06
2023-09-08T09:43:22.620Z,100553.38
2023-09-08T09:45:51.943Z,100552.34
2023-09-08T09:48:21.960Z,100546.44
2023-09-08T09:50:50.230Z,100528.63
2023-09-08T09:53:19.775Z,100536.69
2023-09-08T09:55:47.788Z,100530.69
2023-09-08T09:58:17.170Z,100541.78
2023-09-08T10:00:49.103Z,100528.94
2023-09-08T10:03:20.743Z,100525.13
2023-09-08T10:05:50.703Z,100530.38
2023-09-08T10:08:19.030Z,100525.91
2023-09-08T10:10:49.190Z,100518.75
2023-09-08T10:13:22.526Z,100525.56
2023-09-08T10:15:52.120Z,100521.88
2023-09-08T10:18:23.216Z,100512.00
2023-09-08T10:20:53.697Z,100510.22
2023-09-08T10:23:26.725Z,100514.63
2023-09-08T10:26:03.642Z,100522.75
2023-09-08T10:28:33.473Z,100513.25
2023-09-08T10:31:03.304Z,100516.16
2023-09-08T10:33:33.606Z,100515.25
2023-09-08T10:36:04.233Z,100498.16
2023-09-08T10:38:34.947Z,100502.66
2023-09-08T10:41:29.928Z,100500.66
2023-09-08T10:43:58.817Z,100513.41
2023-09-08T10:46:30.357Z,100501.81
2023-09-08T10:49:06.181Z,100507.44
2023-09-08T10:51:34.890Z,100499.34
2023-09-08T10:54:03.621Z,100489.44
2023-09-08T10:56:50.839Z,100507.97
2023-09-08T10:59:20.425Z,100480.28
2023-09-08T11:01:50.039Z,100482.25
2023-09-08T11:04:20.489Z,100471.91
2023-09-08T11:06:49.283Z,100474.50
2023-09-08T11:09:18.761Z,100457.13
2023-09-08T11:11:47.307Z,100463.25
2023-09-08T11:14:15.621Z,100463.19
2023-09-08T11:16:43.605Z,100457.75
2023-09-08T11:19:12.003Z,100460.94
2023-09-08T11:21:42.486Z,100466.75
2023-09-08T11:24:12.852Z,100462.34
2023-09-08T11:26:41.133Z,100441.66
2023-09-08T11:29:09.731Z,100440.59
2023-09-08T11:31:38.611Z,100412.28
2023-09-08T11:34:07.836Z,100412.41
2023-09-08T11:36:37.441Z,100408.66
2023-09-08T11:39:08.791Z,100400.09
2023-09-08T11:41:37.450Z,100404.06
2023-09-08T11:44:07.224Z,100392.72
2023-09-08T11:46:35.407Z,100373.56
2023-09-08T11:49:03.770Z,100396.53
2023-09-08T11:51:32.525Z,100394.09
2023-09-08T11:54:00.721Z,100386.28
2023-09-08T11:56:32.644Z,100390.03
2023-09-08T11:59:05.606Z,100382.59
2023-09-08T12:01:33.681Z,100376.78
2023-09-08T12:04:02.117Z,100385.25
2023-09-08T12:06:31.114Z,100368.72
2023-09-08T12:09:03.922Z,100374.78
2023-09-08T12:11:38.421Z,100406.84
2023-09-08T12:14:10.738Z,100395.84
2023-09-08T12:16:39.189Z,100391.47
2023-09-08T12:19:08.529Z,100344.47
2023-09-08T12:21:55.688Z,100379.50
2023-09-08T12:24:58.957Z,100352.50
2023-09-08T12:27:30.285Z,100356.50
2023-09-08T12:29:59.574Z,100340.44
2023-09-08T12:32:30.838Z,100342.25
2023-09-08T12:35:00.049Z,100344.84
2023-09-08T12:37:30.178Z,100347.25
2023-09-08T12:39:58.726Z,100343.03
2023-09-08T12:45:11.187Z,100357.94
2023-09-08T12:47:39.783Z,100353.63
2023-09-08T12:50:10.600Z,100360.19
2023-09-08T12:52:42.252Z,100370.13
2023-09-08T12:55:13.279Z,100371.41
2023-09-08T12:57:43.735Z,100388.41
2023-09-08T13:00:16.958Z,100372.75
2023-09-08T13:02:46.884Z,100363.22
2023-09-08T13:05:15.592Z,100360.28
2023-09-08T13:07:44.184Z,100365.06
2023-09-08T13:10:12.720Z,100351.59
2023-09-08T13:12:42.161Z,100355.00
2023-09-08T13:15:14.017Z,100357.28
2023-09-08T13:17:46.631Z,100340.06
2023-09-08T13:20:14.922Z,100336.72
2023-09-08T13:22:43.093Z,100350.88
2023-09-08T13:25:11.460Z,100351.91
2023-09-08T13:27:40.116Z,100349.59
2023-09-08T13:30:12.426Z,100345.75
2023-09-08T13:32:41.277Z,100342.34
2023-09-08T13:35:11.643Z,100328.81
2023-09-08T13:37:40.090Z,100356.75
2023-09-08T13:40:10.087Z,100341.09
2023-09-08T13:42:39.264Z,100355.81
2023-09-08T13:45:07.991Z,100350.69
2023-09-08T13:47:38.115Z,100359.13
2023-09-08T13:50:07.781Z,100342.75
2023-09-08T13:52:42.921Z,100341.91
2023-09-08T13:55:34.957Z,100348.34
2023-09-08T13:58:01.877Z,100349.94
2023-09-08T14:00:32.041Z,100355.25
2023-09-08T14:03:05.673Z,100340.09
2023-09-08T14:05:37.363Z,100329.78
2023-09-08T14:08:17.714Z,100344.28
2023-09-08T14:10:58.696Z,100355.03
2023-09-08T14:13:34.108Z,100350.47
2023-09-08T14:16:03.126Z,100359.16
2023-09-08T14:18:31.422Z,100348.63
2023-09-08T14:20:59.343Z,100342.84
2023-09-08T14:23:29.926Z,100327.91
2023-09-08T14:25:57.702Z,100342.63
2023-09-08T14:28:26.947Z,100337.66
2023-09-08T14:30:55.717Z,100332.88
2023-09-08T14:33:23.656Z,100332.88
2023-09-08T14:35:53.066Z,100337.28
2023-09-08T14:38:20.873Z,100342.44
2023-09-08T14:40:58.176Z,100334.75
2023-09-08T14:43:26.458Z,100347.56
2023-09-08T14:45:54.746Z,100346.75
2023-09-08T14:48:22.812Z,100339.31
2023-09-08T14:50:50.860Z,100338.47
2023-09-08T14:53:18.994Z,100339.50
2023-09-08T14:55:49.444Z,100350.16
2023-09-08T14:58:18.880Z,100348.94
2023-09-08T15:00:47.592Z,100340.28
2023-09-08T15:03:15.487Z,100348.19
2023-09-08T15:05:44.005Z,100355.81
2023-09-08T15:08:13.605Z,100363.94
2023-09-08T15:10:41.739Z,100360.91
2023-09-08T15:13:09.738Z,100359.94
2023-09-08T15:15:39.061Z,100359.81
2023-09-08T15:18:07.477Z,100369.47
2023-09-08T15:20:35.307Z,100379.75
2023-09-08T15:23:05.510Z,100363.84
2023-09-08T15:25:35.882Z,100378.31
2023-09-08T15:28:03.613Z,100382.22
2023-09-08T15:30:31.573Z,100379.16
2023-09-08T15:33:05.546Z,100371.13
2023-09-08T15:35:33.997Z,100380.41
2023-09-08T15:38:01.946Z,100369.63
2023-09-08T15:40:30.316Z,100380.31
2023-09-08T15:42:58.067Z,100372.34
2023-09-08T15:45:26.935Z,100373.34
2023-09-08T15:47:54.924Z,100381.69
2023-09-08T15:50:24.278Z,100383.66
2023-09-08T15:52:52.629Z,100383.38
2023-09-08T15:55:20.468Z,100382.63
2023-09-08T15:57:49.023Z,100397.06
2023-09-08T16:00:18.171Z,100383.22
2023-09-08T16:02:46.298Z,100394.13
2023-09-08T16:05:15.155Z,100380.97
2023-09-08T16:07:47.113Z,100380.13
2023-09-08T16:10:15.174Z,100384.38
2023-09-08T16:12:44.412Z,100389.81
2023-09-08T16:15:12.428Z,100386.16
2023-09-08T16:17:40.452Z,100376.66
2023-09-08T16:20:09.888Z,100380.06
2023-09-08T16:22:38.148Z,100381.41
2023-09-08T16:25:08.902Z,100382.38
2023-09-08T16:27:36.701Z,100379.88
2023-09-08T16:30:05.599Z,100387.72
2023-09-08T16:32:33.972Z,100385.88
2023-09-08T16:35:02.332Z,100381.69
2023-09-08T16:37:30.547Z,100380.38
2023-09-08T16:39:59.371Z,100386.88
2023-09-08T16:42:28.899Z,100383.66
2023-09-08T16:44:57.295Z,100385.03
2023-09-08T16:47:26.891Z,100381.63
2023-09-08T16:49:55.029Z,100399.44
2023-09-08T16:52:24.514Z,100384.59
2023-09-08T16:54:52.465Z,100390.94
2023-09-08T16:57:20.270Z,100394.06
2023-09-08T16:59:49.579Z,100395.38
2023-09-08T17:02:17.425Z,100389.38
2023-09-08T17:04:47.521Z,100386.84
2023-09-08T17:07:15.962Z,100380.97
2023-09-08T17:09:44.155Z,100387.03
2023-09-08T17:12:12.392Z,100387.22
2023-09-08T17:14:40.309Z,100389.66
2023-09-08T17:17:09.609Z,100392.16
2023-09-08T17:19:38.079Z,100386.91
2023-09-08T17:22:07.594Z,100389.25
2023-09-08T17:24:36.686Z,100384.00
2023-09-08T17:27:04.901Z,100390.28
2023-09-08T17:29:33.200Z,100387.09
2023-09-08T17:32:01.087Z,100390.97
2023-09-08T17:34:30.437Z,100386.94
2023-09-08T17:37:01.007Z,100391.22
2023-09-08T17:39:29.748Z,100383.69
2023-09-08T17:41:57.686Z,100393.28
2023-09-08T17:44:25.471Z,100396.25
2023-09-08T17:46:53.688Z,100401.50
2023-09-08T17:49:21.586Z,100396.19
2023-09-08T17:51:51.577Z,100395.09
2023-09-08T17:54:19.820Z,100403.50
2023-09-08T17:56:48.499Z,100399.59
2023-09-08T17:59:17.081Z,100400.28
2023-09-08T18:01:45.365Z,100401.03
2023-09-08T18:04:13.912Z,100397.13
2023-09-08T18:06:42.739Z,100407.69
2023-09-08T18:09:12.428Z,100410.63
2023-09-08T18:11:40.648Z,100404.09
2023-09-08T18:14:08.510Z,100402.59
2023-09-08T18:16:37.061Z,100403.88
2023-09-08T18:19:04.941Z,100406.13
2023-09-08T18:21:33.521Z,100402.09
2023-09-08T18:24:01.354Z,100405.50
2023-09-08T18:26:30.562Z,100408.41
2023-09-08T18:28:58.347Z,100406.66
2023-09-08T18:31:27.009Z,100419.09
2023-09-08T18:33:55.594Z,100417.88
2023-09-08T18:36:23.665Z,100416.03
2023-09-08T18:38:51.520Z,100413.81
2023-09-08T18:41:19.496Z,100420.41
2023-09-08T18:43:49.584Z,100425.16
2023-09-08T18:46:17.470Z,100422.09
2023-09-08T18:48:46.527Z,100431.88
2023-09-08T18:51:15.038Z,100432.16
2023-09-08T18:53:43.059Z,100430.63
2023-09-08T18:56:11.143Z,100430.53
2023-09-08T18:58:39.105Z,100438.78
2023-09-08T19:01:09.127Z,100433.59
2023-09-08T19:03:38.386Z,100436.69
2023-09-08T19:06:06.825Z,100437.94
2023-09-08T19:08:34.868Z,100446.22
2023-09-08T19:11:02.578Z,100439.09
2023-09-08T19:13:30.818Z,100439.38
2023-09-08T19:15:58.941Z,100439.94
2023-09-08T19:18:28.165Z,100437.28
2023-09-08T19:20:57.077Z,100436.59
2023-09-08T19:23:24.956Z,100441.06
2023-09-08T19:25:52.700Z,100443.28
2023-09-08T19:28:20.540Z,100443.03
2023-09-08T19:30:49.265Z,100434.78
2023-09-08T19:33:17.535Z,100443.28
2023-09-08T19:35:46.667Z,100438.41
2023-09-08T19:38:14.449Z,100446.38
2023-09-08T19:40:42.226Z,100440.50
2023-09-08T19:43:10.248Z,100447.78
2023-09-08T19:45:38.270Z,100442.56
2023-09-08T19:48:07.424Z,100433.09
2023-09-08T19:50:35.202Z,100442.19
2023-09-08T19:53:04.671Z,100434.22
2023-09-08T19:55:32.418Z,100437.13
2023-09-08T19:58:00.583Z,100439.22
2023-09-08T20:00:28.330Z,100434.88
2023-09-08T20:02:57.811Z,100436.72
2023-09-08T20:05:26.027Z,100438.53
2023-09-08T20:07:53.797Z,100439.09
2023-09-08T20:10:24.139Z,100436.00
2023-09-08T20:12:51.874Z,100433.50
2023-09-08T20:15:20.066Z,100433.50
2023-09-08T20:17:47.982Z,100437.97
2023-09-08T20:20:16.468Z,100433.38
2023-09-08T20:22:44.207Z,100434.44
2023-09-08T20:25:11.929Z,100423.56
2023-09-08T20:27:41.149Z,100433.91
2023-09-08T20:30:09.923Z,100428.88
2023-09-08T20:32:37.789Z,100433.34
2023-09-08T20:35:06.367Z,100440.44
2023-09-08T20:37:34.166Z,100436.69
2023-09-08T20:40:02.081Z,100437.13
2023-09-08T20:42:30.111Z,100432.66
2023-09-08T20:44:59.697Z,100436.28
2023-09-08T20:47:27.455Z,100429.00
2023-09-08T20:49:57.182Z,100434.00
2023-09-08T20:52:25.158Z,100436.25
2023-09-08T20:54:53.037Z,100437.59
2023-09-08T20:57:20.825Z,100440.91
2023-09-08T20:59:48.571Z,100438.66
2023-09-08T21:02:19.168Z,100446.31
2023-09-08T21:04:46.971Z,100446.13
2023-09-08T21:07:14.975Z,100444.00
2023-09-08T21:09:42.807Z,100446.47
2023-09-08T21:12:10.708Z,100454.34
2023-09-08T21:14:38.713Z,100456.41
2023-09-08T21:17:06.691Z,100453.25
2023-09-08T21:19:36.714Z,100456.38
2023-09-08T21:22:05.062Z,100451.88
2023-09-08T21:24:33.257Z,100456.25
2023-09-08T21:27:01.427Z,100456.38
2023-09-08T21:29:29.249Z,100452.53
2023-09-08T21:31:57.545Z,100453.66
2023-09-08T21:34:26.058Z,100447.84
2023-09-08T21:36:55.238Z,100441.28
2023-09-08T21:39:22.953Z,100441.13
2023-09-08T21:41:50.683Z,100443.34
2023-09-08T21:44:18.832Z,100441.28
2023-09-08T21:46:46.747Z,100439.22
2023-09-08T21:49:14.717Z,100445.94
2023-09-08T21:51:45.326Z,100433.53
2023-09-08T21:54:14.508Z,100435.09
2023-09-08T21:56:42.766Z,100439.78
2023-09-08T21:59:11.383Z,100437.03
2023-09-08T22:01:39.343Z,100432.72
2023-09-08T22:04:07.393Z,100436.19
2023-09-08T22:06:35.423Z,100440.16
2023-09-08T22:09:03.240Z,100441.97
2023-09-08T22:11:33.073Z,100429.84
2023-09-08T22:14:00.984Z,100432.25
2023-09-08T22:16:29.980Z,100440.91
2023-09-08T22:18:57.996Z,100433.34
2023-09-08T22:21:25.866Z,100443.44
2023-09-08T22:23:53.644Z,100442.13
2023-09-08T22:26:22.133Z,100438.91
2023-09-08T22:28:51.932Z,100441.94
2023-09-08T22:31:19.899Z,100439.91
2023-09-08T22:33:49.811Z,100443.66
2023-09-08T22:36:21.209Z,100436.81
2023-09-08T22:38:49.041Z,100433.34
2023-09-08T22:41:17.288Z,100440.91
2023-09-08T22:43:45.335Z,100435.00
2023-09-08T22:46:14.704Z,100440.44
2023-09-08T22:48:42.537Z,100438.38
2023-09-08T22:51:10.639Z,100444.16
2023-09-08T22:53:38.808Z,100438.88
2023-09-08T22:56:07.252Z,100445.59
2023-09-08T22:58:43.873Z,100447.66
2023-09-08T23:01:11.854Z,100446.84
2023-09-08T23:03:41.639Z,100461.97
2023-09-08T23:06:10.108Z,100449.97
2023-09-08T23:08:37.925Z,100450.06
2023-09-08T23:11:05.883Z,100448.41
2023-09-08T23:13:33.617Z,100450.22
2023-09-08T23:16:01.458Z,100442.03
2023-09-08T23:18:29.529Z,100447.69
2023-09-08T23:20:59.109Z,100443.47
2023-09-08T23:23:27.052Z,100445.19
2023-09-08T23:25:54.841Z,100453.31
2023-09-08T23:28:22.654Z,100447.66
2023-09-08T23:30:50.466Z,100448.66
2023-09-08T23:33:18.934Z,100440.38
2023-09-08T23:35:46.910Z,100435.31
2023-09-08T23:38:16.276Z,100431.22
2023-09-08T23:40:44.390Z,100431.59
2023-09-08T23:43:12.281Z,100434.59
2023-09-08T23:45:45.147Z,100427.63
2023-09-08T23:48:13.165Z,100431.22
2023-09-08T23:50:52.827Z,100425.97
2023-09-08T23:53:23.115Z,100434.59
2023-09-08T23:55:51.274Z,100424.97
2023-09-08T23:58:20.690Z,100426.66
